Time;durP1;ratioP1;P1;durP2;ratioP2;P2;SDS_P1;SDS_P2;PMS_P1;PMS_P2;Temp;Humidity;BMP_temperature;BMP_pressure;BME280_temperature;BME280_humidity;BME280_pressure;Samples;Min_cycle;Max_cycle;Signal;HPM_P1;HPM_P2
2021/10/11 00:01:57;;;;;;;1.70;1.52;;;;;;;30.77;20.54;94598.06;5073171;28;20063;-53
2021/10/11 00:04:25;;;;;;;1.90;1.25;;;;;;;30.82;20.60;94602.97;5073046;28;20063;-55
2021/10/11 00:06:52;;;;;;;1.60;1.42;;;;;;;30.99;20.35;94589.22;5070669;28;20044;-53
2021/10/11 00:09:19;;;;;;;1.85;1.67;;;;;;;30.43;21.05;94590.81;5067825;28;20041;-53
2021/10/11 00:11:46;;;;;;;1.65;1.55;;;;;;;30.58;20.86;94575.97;5073649;28;20045;-53
2021/10/11 00:14:13;;;;;;;1.50;1.40;;;;;;;30.83;20.79;94582.91;5073978;28;20638;-53
2021/10/11 00:16:40;;;;;;;2.10;1.58;;;;;;;30.89;20.58;94583.97;5073491;28;20059;-55
2021/10/11 00:19:07;;;;;;;1.50;1.40;;;;;;;30.81;20.67;94577.19;5073380;28;20048;-53
2021/10/11 00:21:34;;;;;;;2.10;1.52;;;;;;;30.71;20.63;94575.41;5072449;28;20056;-55
2021/10/11 00:24:01;;;;;;;2.33;1.50;;;;;;;30.54;20.78;94567.16;5073412;28;20056;-56
2021/10/11 00:26:28;;;;;;;3.85;2.17;;;;;;;30.71;20.57;94562.69;5073743;28;20047;-53
2021/10/11 00:28:55;;;;;;;1.60;1.50;;;;;;;30.39;21.04;94558.50;5073044;28;20044;-54
2021/10/11 00:31:22;;;;;;;1.90;1.70;;;;;;;30.74;20.94;94550.31;5072973;28;20048;-54
2021/10/11 00:33:49;;;;;;;1.77;1.60;;;;;;;30.65;20.87;94565.06;5073353;28;20366;-54
2021/10/11 00:36:17;;;;;;;1.50;1.40;;;;;;;30.47;21.08;94561.88;5073524;28;20455;-54
2021/10/11 00:38:44;;;;;;;2.47;1.65;;;;;;;30.71;20.99;94545.72;5073085;28;20048;-54
2021/10/11 00:41:11;;;;;;;2.03;1.77;;;;;;;30.68;20.66;94553.47;5072918;28;20437;-52
2021/10/11 00:43:39;;;;;;;2.08;1.83;;;;;;;30.42;21.22;94546.13;5073364;28;20056;-53
2021/10/11 00:46:07;;;;;;;1.90;1.63;;;;;;;30.41;21.20;94560.78;5073300;28;20059;-56
2021/10/11 00:48:37;;;;;;;1.60;1.50;;;;;;;30.69;20.94;94546.88;5072792;28;20040;-54
2021/10/11 00:51:05;;;;;;;2.50;1.52;;;;;;;30.69;20.57;94549.59;5062880;28;20366;-53
2021/10/11 00:53:33;;;;;;;1.67;1.58;;;;;;;30.28;21.29;94557.16;5073283;28;20056;-53
2021/10/11 00:56:00;;;;;;;1.83;1.60;;;;;;;30.69;20.44;94548.81;5073207;28;20451;-56
2021/10/11 00:58:27;;;;;;;2.38;1.58;;;;;;;30.52;20.94;94561.41;5072325;28;20052;-55
2021/10/11 01:00:55;;;;;;;1.77;1.67;;;;;;;30.83;20.60;94545.16;5072552;28;20493;-56
2021/10/11 01:03:22;;;;;;;1.58;1.48;;;;;;;30.64;20.63;94536.56;5072660;28;20064;-54
2021/10/11 01:05:49;;;;;;;2.17;1.60;;;;;;;30.65;20.86;94548.88;5072069;28;20055;-54
2021/10/11 01:08:16;;;;;;;1.90;1.70;;;;;;;30.48;20.69;94532.97;5073182;28;20075;-53
2021/10/11 01:10:46;;;;;;;2.10;1.60;;;;;;;30.81;20.74;94534.75;5067053;28;20053;-54
2021/10/11 01:13:13;;;;;;;2.17;1.98;;;;;;;30.55;20.71;94524.75;5070702;28;20477;-57
2021/10/11 01:15:40;;;;;;;1.60;1.45;;;;;;;30.58;20.70;94526.63;5073188;28;20048;-53
2021/10/11 01:18:07;;;;;;;1.65;1.55;;;;;;;30.48;21.08;94514.88;5073096;28;20051;-58
2021/10/11 01:20:35;;;;;;;2.08;1.45;;;;;;;30.63;20.76;94523.50;5068440;28;20056;-55
2021/10/11 01:23:02;;;;;;;2.60;1.70;;;;;;;30.69;20.76;94517.22;5069209;28;20047;-53
2021/10/11 01:25:30;;;;;;;2.58;1.80;;;;;;;30.78;20.71;94529.44;5072861;28;20447;-55
2021/10/11 01:27:57;;;;;;;1.67;1.58;;;;;;;30.57;20.80;94517.78;5073207;28;20512;-53
2021/10/11 01:30:24;;;;;;;1.83;1.52;;;;;;;30.61;20.57;94526.59;5072239;28;20061;-54
2021/10/11 01:32:51;;;;;;;2.20;1.88;;;;;;;30.54;20.69;94526.69;5073845;28;20363;-55
2021/10/11 01:35:18;;;;;;;2.10;1.45;;;;;;;30.52;20.90;94514.81;5076357;28;20075;-52
2021/10/11 01:37:47;;;;;;;1.55;1.45;;;;;;;30.75;20.47;94520.22;5076686;28;20056;-53
2021/10/11 01:40:15;;;;;;;2.28;1.58;;;;;;;31.02;20.19;94520.13;5075922;28;20071;-55
2021/10/11 01:42:43;;;;;;;1.77;1.50;;;;;;;30.81;20.38;94512.41;5075578;28;20064;-53
2021/10/11 01:45:10;;;;;;;1.65;1.50;;;;;;;31.01;20.48;94521.31;5057790;28;20053;-53
2021/10/11 01:47:38;;;;;;;2.78;1.65;;;;;;;30.84;20.63;94511.59;5076451;28;20052;-52
2021/10/11 01:50:06;;;;;;;1.70;1.50;;;;;;;30.53;20.71;94511.69;5075398;28;20387;-55
2021/10/11 01:52:35;;;;;;;1.85;1.50;;;;;;;30.64;20.52;94498.81;5075766;28;20045;-54
2021/10/11 01:55:05;;;;;;;1.55;1.45;;;;;;;30.59;20.86;94507.34;5076183;28;20051;-55
2021/10/11 01:57:32;;;;;;;1.40;1.15;;;;;;;30.84;20.21;94495.41;5075945;28;20370;-53
2021/10/11 01:59:59;;;;;;;2.00;1.40;;;;;;;30.60;20.57;94503.50;5075921;28;20052;-55
2021/10/11 02:02:27;;;;;;;2.00;1.20;;;;;;;30.94;20.24;94500.59;5075391;28;20060;-54
2021/10/11 02:04:54;;;;;;;1.52;1.30;;;;;;;30.65;20.74;94494.94;5075796;28;20056;-55
2021/10/11 02:07:21;;;;;;;1.25;1.13;;;;;;;30.60;20.55;94487.31;5076001;28;20411;-55
2021/10/11 02:09:48;;;;;;;1.38;1.25;;;;;;;30.66;20.34;94528.81;5074953;28;20041;-55
2021/10/11 02:12:16;;;;;;;1.50;1.20;;;;;;;30.53;20.54;94505.53;5075205;28;20047;-58
2021/10/11 02:14:43;;;;;;;1.30;1.10;;;;;;;30.65;20.56;94505.72;5075909;28;20063;-53
2021/10/11 02:17:10;;;;;;;1.23;1.10;;;;;;;30.80;20.46;94494.69;5076272;28;20044;-54
2021/10/11 02:19:37;;;;;;;1.30;1.10;;;;;;;30.78;20.41;94491.66;5057641;28;20387;-52
2021/10/11 02:22:04;;;;;;;1.65;1.25;;;;;;;30.96;20.37;94492.09;5075117;28;20056;-53
2021/10/11 02:24:32;;;;;;;1.60;1.27;;;;;;;30.76;20.34;94485.91;5075683;28;20074;-56
2021/10/11 02:26:59;;;;;;;1.23;1.10;;;;;;;31.02;20.14;94490.44;5075608;28;20052;-53
2021/10/11 02:29:27;;;;;;;1.30;1.20;;;;;;;31.30;19.68;94489.16;5075607;28;20040;-53
2021/10/11 02:31:55;;;;;;;1.20;1.10;;;;;;;30.90;20.30;94480.25;5074015;28;20067;-53
2021/10/11 02:34:23;;;;;;;1.45;1.10;;;;;;;30.95;20.41;94474.38;5075591;28;20339;-54
2021/10/11 02:36:50;;;;;;;1.17;1.08;;;;;;;31.08;20.37;94486.09;5075540;28;20478;-55
2021/10/11 02:39:17;;;;;;;1.10;1.00;;;;;;;31.06;20.38;94474.94;5075356;28;20056;-54
2021/10/11 02:41:44;;;;;;;1.58;1.13;;;;;;;30.62;20.91;94468.78;5074336;28;20055;-53
2021/10/11 02:44:11;;;;;;;1.17;0.90;;;;;;;30.82;20.58;94479.63;5073569;28;20068;-54
2021/10/11 02:46:38;;;;;;;1.00;0.80;;;;;;;30.64;20.64;94477.22;5075253;28;20048;-55
2021/10/11 02:49:05;;;;;;;2.55;0.90;;;;;;;30.62;20.68;94468.78;5075243;28;20044;-53
2021/10/11 02:51:32;;;;;;;1.48;1.10;;;;;;;30.77;20.77;94476.66;5074366;28;20443;-53
2021/10/11 02:54:00;;;;;;;0.85;0.80;;;;;;;30.42;20.92;94483.34;5074881;28;20048;-54
2021/10/11 02:56:27;;;;;;;1.52;1.08;;;;;;;30.88;20.32;94471.81;5074892;28;20040;-54
2021/10/11 02:58:54;;;;;;;1.35;1.00;;;;;;;30.74;20.80;94469.38;5074914;28;20048;-57
2021/10/11 03:01:21;;;;;;;1.00;0.80;;;;;;;30.77;20.45;94472.00;5073621;28;20060;-60
2021/10/11 03:03:48;;;;;;;1.15;1.00;;;;;;;30.54;21.00;94472.75;5074550;28;20052;-54
2021/10/11 03:06:15;;;;;;;1.38;0.93;;;;;;;30.44;20.75;94467.53;5074855;28;20048;-52
2021/10/11 03:08:42;;;;;;;1.20;0.80;;;;;;;30.67;20.62;94471.00;5057175;28;20056;-52
2021/10/11 03:11:09;;;;;;;1.30;0.90;;;;;;;30.87;20.64;94462.19;5074199;28;20059;-55
2021/10/11 03:13:36;;;;;;;1.35;0.80;;;;;;;30.75;20.68;94465.50;5075002;28;20056;-56
2021/10/11 03:16:03;;;;;;;1.10;0.90;;;;;;;30.74;20.59;94462.03;5074617;28;20438;-56
2021/10/11 03:18:30;;;;;;;1.00;0.90;;;;;;;30.69;20.86;94457.09;5074835;28;20044;-52
2021/10/11 03:20:57;;;;;;;1.30;0.82;;;;;;;30.92;20.66;94459.00;5070153;28;20056;-54
2021/10/11 03:23:25;;;;;;;1.00;0.80;;;;;;;30.60;20.81;94464.94;5066930;28;20067;-54
2021/10/11 03:25:52;;;;;;;1.00;0.70;;;;;;;30.94;20.47;94460.09;5074867;28;20458;-52
2021/10/11 03:28:19;;;;;;;1.27;0.90;;;;;;;31.11;20.40;94449.41;5073717;28;20054;-54
2021/10/11 03:30:47;;;;;;;0.80;0.68;;;;;;;30.78;20.45;94443.84;5072882;28;20044;-56
2021/10/11 03:33:14;;;;;;;1.17;0.93;;;;;;;30.61;20.82;94445.69;5073250;28;20534;-54
2021/10/11 03:35:41;;;;;;;1.00;0.80;;;;;;;30.67;20.49;94444.03;5073662;28;20052;-56
2021/10/11 03:38:08;;;;;;;1.35;0.80;;;;;;;30.86;20.58;94444.47;5074051;28;20045;-55
2021/10/11 03:40:35;;;;;;;0.73;0.63;;;;;;;30.86;20.55;94444.47;5073800;28;20059;-57
2021/10/11 03:43:02;;;;;;;0.90;0.60;;;;;;;30.81;20.44;94432.22;5073057;28;20052;-52
2021/10/11 03:45:29;;;;;;;1.23;0.82;;;;;;;30.90;20.25;94439.75;5072878;28;20059;-53
2021/10/11 03:47:56;;;;;;;1.10;0.70;;;;;;;30.84;20.51;94426.00;5074167;28;20063;-52
2021/10/11 03:50:23;;;;;;;0.82;0.60;;;;;;;30.54;20.87;94429.59;5073503;28;20048;-54
2021/10/11 03:52:50;;;;;;;1.10;0.70;;;;;;;30.54;20.86;94429.59;5073487;28;20059;-54
2021/10/11 03:55:17;;;;;;;1.33;0.60;;;;;;;30.59;20.92;94412.94;5073851;28;20052;-53
2021/10/11 03:57:45;;;;;;;1.60;0.80;;;;;;;30.79;20.94;94417.63;5073239;28;20111;-53
2021/10/11 04:00:12;;;;;;;1.52;0.80;;;;;;;30.52;21.11;94410.38;5073171;28;20485;-53
2021/10/11 04:02:39;;;;;;;1.45;0.70;;;;;;;30.53;21.06;94420.00;5072975;28;20332;-53
2021/10/11 04:05:08;;;;;;;0.90;0.70;;;;;;;30.40;21.42;94413.66;5073657;28;20048;-57
2021/10/11 04:07:36;;;;;;;1.05;0.60;;;;;;;30.91;20.80;94408.91;5073186;28;20063;-53
2021/10/11 04:10:06;;;;;;;2.78;0.80;;;;;;;30.57;21.14;94406.44;5073692;28;20385;-56
2021/10/11 04:12:34;;;;;;;2.47;0.90;;;;;;;30.66;21.16;94404.75;5072449;28;20052;-56
2021/10/11 04:15:06;;;;;;;1.35;0.95;;;;;;;30.64;21.09;94396.28;5073569;28;20052;-55
2021/10/11 04:17:38;;;;;;;0.93;0.82;;;;;;;30.48;21.15;94398.91;5073622;28;20056;-54
2021/10/11 04:20:07;;;;;;;1.00;0.80;;;;;;;30.58;21.17;94406.03;5073532;28;20048;-52
2021/10/11 04:22:34;;;;;;;1.60;0.80;;;;;;;31.10;20.90;94397.34;5072426;28;20055;-53
2021/10/11 04:25:02;;;;;;;1.10;0.90;;;;;;;31.69;20.37;94395.72;5054093;28;20048;-54
2021/10/11 04:27:29;;;;;;;1.40;1.10;;;;;;;30.17;21.91;94378.63;5057190;28;20044;-49
2021/10/11 04:29:56;;;;;;;1.48;1.00;;;;;;;31.40;20.90;94384.78;5061740;28;20059;-44
2021/10/11 04:32:23;;;;;;;5.80;1.10;;;;;;;32.40;19.61;94378.59;5063807;28;20430;-41
2021/10/11 04:34:50;;;;;;;10.85;1.17;;;;;;;32.90;18.94;94382.72;5067795;28;20045;-41
2021/10/11 04:37:17;;;;;;;1.27;1.00;;;;;;;33.67;18.39;94386.31;5069364;28;20045;-39
2021/10/11 04:39:44;;;;;;;1.10;0.95;;;;;;;34.07;18.05;94378.47;5065971;28;20052;-37
2021/10/11 04:42:12;;;;;;;1.65;1.20;;;;;;;34.41;17.50;94379.75;5071438;28;20063;-40
2021/10/11 04:44:39;;;;;;;2.50;1.00;;;;;;;33.99;17.70;94383.38;5066506;28;20056;-45
2021/10/11 04:47:06;;;;;;;4.80;1.15;;;;;;;32.84;18.79;94389.84;5072588;28;20044;-44
2021/10/11 04:49:33;;;;;;;3.22;1.08;;;;;;;32.45;19.10;94386.19;5072732;28;20363;-49
2021/10/11 04:52:00;;;;;;;3.67;1.20;;;;;;;31.93;19.78;94382.84;5069848;28;20052;-44
2021/10/11 04:54:27;;;;;;;4.80;1.38;;;;;;;32.17;19.37;94386.91;5066486;28;20052;-50
2021/10/11 04:56:54;;;;;;;1.83;1.50;;;;;;;31.96;19.78;94384.69;5066279;28;20059;-44
2021/10/11 04:59:22;;;;;;;1.75;1.60;;;;;;;31.92;20.06;94390.19;5073184;28;20044;-44
2021/10/11 05:01:49;;;;;;;2.25;1.80;;;;;;;31.44;20.25;94390.88;5072089;28;20056;-45
2021/10/11 05:04:16;;;;;;;1.60;1.40;;;;;;;31.46;20.61;94380.41;5060328;28;20115;-45
2021/10/11 05:06:43;;;;;;;3.70;1.50;;;;;;;31.63;20.57;94387.38;5072895;28;20059;-47
2021/10/11 05:09:10;;;;;;;5.72;1.50;;;;;;;31.59;20.61;94375.88;5075930;28;20502;-46
2021/10/11 05:11:37;;;;;;;2.85;1.30;;;;;;;31.96;20.37;94376.59;5076871;28;20355;-45
2021/10/11 05:14:04;;;;;;;3.53;1.50;;;;;;;31.54;20.43;94381.78;5077274;28;20060;-50
2021/10/11 05:16:34;;;;;;;2.95;1.60;;;;;;;31.56;20.79;94366.69;5077039;28;20052;-46
2021/10/11 05:19:01;;;;;;;2.22;1.45;;;;;;;31.67;20.48;94361.03;5077239;28;20057;-46
2021/10/11 05:21:28;;;;;;;2.83;1.30;;;;;;;31.37;20.51;94383.69;5076851;28;20055;-47
2021/10/11 05:23:55;;;;;;;4.53;1.60;;;;;;;31.87;20.13;94375.25;5077106;28;20331;-46
2021/10/11 05:26:22;;;;;;;1.60;1.40;;;;;;;32.05;20.41;94374.06;5059368;28;20044;-48
2021/10/11 05:28:49;;;;;;;1.75;1.40;;;;;;;31.81;20.47;94382.34;5058122;28;20056;-48
2021/10/11 05:31:16;;;;;;;1.48;1.33;;;;;;;31.50;20.61;94389.97;5070120;28;20052;-46
2021/10/11 05:33:43;;;;;;;2.42;1.73;;;;;;;31.77;20.63;94384.38;5076944;28;20358;-46
2021/10/11 05:36:11;;;;;;;1.73;1.38;;;;;;;31.24;20.85;94388.22;5058540;28;20443;-50
2021/10/11 05:38:38;;;;;;;3.85;1.63;;;;;;;31.33;20.84;94380.31;5067754;28;20052;-50
2021/10/11 05:41:05;;;;;;;1.98;1.40;;;;;;;31.90;20.32;94396.03;5040517;28;20057;-49
2021/10/11 05:43:32;;;;;;;2.05;1.40;;;;;;;31.72;20.46;94395.66;5075887;28;20064;-47
2021/10/11 05:45:59;;;;;;;1.67;1.20;;;;;;;31.57;20.50;94397.16;5075352;28;20055;-46
2021/10/11 05:48:26;;;;;;;1.85;1.60;;;;;;;31.10;21.38;94397.34;5060297;28;20044;-46
2021/10/11 05:50:53;;;;;;;2.10;1.70;;;;;;;31.87;20.62;94396.13;5056724;28;20363;-45
2021/10/11 05:53:20;;;;;;;2.15;1.95;;;;;;;31.40;20.98;94406.41;5056532;28;20045;-45
2021/10/11 05:55:47;;;;;;;2.85;2.45;;;;;;;31.84;20.54;94403.13;5056554;28;20049;-46
2021/10/11 05:58:14;;;;;;;2.50;2.20;;;;;;;31.16;21.12;94397.59;5056383;28;20048;-47
2021/10/11 06:00:41;;;;;;;3.15;2.33;;;;;;;31.73;20.91;94389.09;5065324;28;20451;-46
2021/10/11 06:03:09;;;;;;;3.30;2.60;;;;;;;31.81;20.83;94393.16;5059129;28;20052;-46
2021/10/11 06:05:36;;;;;;;2.75;2.38;;;;;;;32.00;20.51;94398.88;5056470;28;20049;-46
2021/10/11 06:08:04;;;;;;;2.13;1.80;;;;;;;31.71;20.74;94394.16;5056251;28;20056;-46
2021/10/11 06:10:31;;;;;;;2.70;2.10;;;;;;;31.38;20.85;94396.00;5055928;28;20052;-47
2021/10/11 06:12:58;;;;;;;2.53;2.13;;;;;;;31.44;20.96;94404.38;5055861;28;20116;-46
2021/10/11 06:15:25;;;;;;;3.17;2.30;;;;;;;31.46;21.35;94400.06;5056217;28;20056;-45
2021/10/11 06:17:52;;;;;;;2.17;1.88;;;;;;;31.29;21.07;94396.59;5066627;28;20044;-46
2021/10/11 06:20:19;;;;;;;2.22;1.90;;;;;;;30.92;21.61;94394.22;5074342;28;20056;-47
2021/10/11 06:22:46;;;;;;;2.28;1.90;;;;;;;31.45;21.33;94403.19;5075786;28;20447;-51
2021/10/11 06:25:13;;;;;;;2.22;2.00;;;;;;;31.32;21.19;94399.63;5076029;28;20055;-47
2021/10/11 06:27:41;;;;;;;2.03;1.83;;;;;;;31.74;20.96;94398.72;5065939;28;20056;-45
2021/10/11 06:30:08;;;;;;;2.53;2.00;;;;;;;31.57;20.72;94394.47;5055598;28;20049;-48
2021/10/11 06:32:37;;;;;;;2.45;2.08;;;;;;;31.81;20.83;94397.81;5054211;28;20055;-49
2021/10/11 06:35:05;;;;;;;2.15;1.80;;;;;;;31.51;20.92;94398.84;5055845;28;20063;-46
2021/10/11 06:37:32;;;;;;;2.67;1.95;;;;;;;31.69;20.65;94395.72;5055735;28;20056;-46
2021/10/11 06:39:59;;;;;;;2.65;1.85;;;;;;;31.09;21.37;94393.13;5055777;28;20056;-47
2021/10/11 06:42:26;;;;;;;2.30;2.00;;;;;;;30.60;21.75;94386.72;5066567;28;20414;-47
2021/10/11 06:44:54;;;;;;;3.67;1.98;;;;;;;30.59;21.93;94393.28;5070243;28;20057;-46
2021/10/11 06:47:22;;;;;;;3.22;1.75;;;;;;;31.04;21.46;94385.53;5060824;28;20386;-48
2021/10/11 06:49:49;;;;;;;2.38;1.88;;;;;;;30.19;21.94;94395.94;5055113;28;20049;-47
2021/10/11 06:52:17;;;;;;;2.28;1.80;;;;;;;31.07;21.43;94390.09;5065003;28;20045;-45
2021/10/11 06:54:44;;;;;;;2.03;1.60;;;;;;;31.75;21.00;94394.84;5057890;28;20060;-46
2021/10/11 06:57:11;;;;;;;2.00;1.70;;;;;;;30.82;21.41;94384.41;5058990;28;20462;-45
2021/10/11 06:59:38;;;;;;;2.75;1.63;;;;;;;31.17;21.17;94382.97;5073822;28;20371;-46
2021/10/11 07:02:06;;;;;;;1.98;1.77;;;;;;;31.69;20.73;94391.09;5073994;28;20212;-46
2021/10/11 07:04:33;;;;;;;3.90;1.67;;;;;;;30.64;21.86;94388.19;5075313;28;20044;-48
2021/10/11 07:07:01;;;;;;;4.32;2.00;;;;;;;31.92;20.57;94398.31;5074964;28;20052;-48
2021/10/11 07:09:28;;;;;;;2.45;2.15;;;;;;;31.90;20.40;94389.88;5057220;28;20048;-47
2021/10/11 07:11:55;;;;;;;2.65;2.13;;;;;;;31.72;20.88;94379.47;5060507;28;20044;-46
2021/10/11 07:14:22;;;;;;;2.03;1.50;;;;;;;30.81;21.50;94388.28;5064955;28;20482;-46
2021/10/11 07:16:49;;;;;;;2.10;1.42;;;;;;;30.49;22.01;94384.22;5055058;28;20049;-46
2021/10/11 07:19:16;;;;;;;1.73;1.40;;;;;;;30.48;21.77;94388.09;5074915;28;20060;-46
2021/10/11 07:21:44;;;;;;;2.15;1.25;;;;;;;31.31;20.90;94376.50;5073699;28;20048;-45
2021/10/11 07:24:12;;;;;;;2.60;1.20;;;;;;;31.15;21.15;94375.25;5055170;28;20040;-48
2021/10/11 07:26:40;;;;;;;1.52;1.10;;;;;;;31.25;21.03;94374.31;5054875;28;20355;-47
2021/10/11 07:29:07;;;;;;;1.73;1.23;;;;;;;31.62;20.91;94369.63;5054630;28;20049;-46
2021/10/11 07:31:35;;;;;;;1.70;1.30;;;;;;;30.82;21.57;94376.31;5053534;28;20463;-48
2021/10/11 07:34:02;;;;;;;2.53;1.50;;;;;;;31.34;21.37;94379.13;5054239;28;20056;-50
2021/10/11 07:36:29;;;;;;;3.38;1.90;;;;;;;31.12;21.41;94370.69;5054780;28;20057;-48
2021/10/11 07:38:56;;;;;;;2.17;1.50;;;;;;;30.85;21.80;94367.41;5054555;28;20514;-47
2021/10/11 07:41:24;;;;;;;3.17;1.35;;;;;;;31.01;21.50;94362.06;5054721;28;20049;-46
2021/10/11 07:43:51;;;;;;;1.48;1.17;;;;;;;31.20;21.33;94366.69;5074501;28;20056;-47
2021/10/11 07:46:18;;;;;;;2.03;1.30;;;;;;;31.11;21.33;94366.47;5074366;28;20048;-47
2021/10/11 07:48:45;;;;;;;1.60;1.23;;;;;;;31.41;21.26;94354.66;5059367;28;20044;-50
2021/10/11 07:51:12;;;;;;;1.98;1.50;;;;;;;31.33;21.43;94372.22;5053914;28;20053;-49
2021/10/11 07:53:39;;;;;;;1.75;1.25;;;;;;;31.09;21.22;94371.53;5054385;28;20045;-47
2021/10/11 07:56:07;;;;;;;1.90;1.40;;;;;;;30.84;21.74;94368.56;5060368;28;20067;-48
2021/10/11 07:58:34;;;;;;;2.13;1.33;;;;;;;30.81;21.71;94366.72;5074012;28;20052;-47
2021/10/11 08:01:01;;;;;;;2.75;1.25;;;;;;;30.76;22.09;94361.81;5071150;28;20075;-46
2021/10/11 08:03:28;;;;;;;1.83;1.40;;;;;;;30.83;21.90;94375.91;5073353;28;20048;-46
2021/10/11 08:05:55;;;;;;;2.03;1.40;;;;;;;31.05;21.52;94364.69;5074061;28;20051;-51
2021/10/11 08:08:22;;;;;;;2.38;1.40;;;;;;;30.90;21.73;94369.59;5073801;28;20060;-45
2021/10/11 08:10:50;;;;;;;1.63;1.23;;;;;;;30.89;21.97;94362.69;5074094;28;20051;-45
2021/10/11 08:13:17;;;;;;;2.08;1.23;;;;;;;31.39;21.03;94356.25;5073385;28;20049;-51
2021/10/11 08:15:44;;;;;;;2.30;1.23;;;;;;;31.36;21.28;94357.88;5053386;28;20068;-47
2021/10/11 08:18:11;;;;;;;2.03;1.38;;;;;;;31.39;21.18;94364.38;5053939;28;20045;-48
2021/10/11 08:20:39;;;;;;;2.33;1.60;;;;;;;31.80;20.71;94361.16;5054080;28;20048;-46
2021/10/11 08:23:06;;;;;;;2.28;1.48;;;;;;;30.95;21.61;94363.72;5066022;28;20056;-46
2021/10/11 08:25:33;;;;;;;1.95;1.42;;;;;;;31.49;21.25;94366.06;5065516;28;20049;-47
2021/10/11 08:28:00;;;;;;;2.00;1.50;;;;;;;31.48;21.22;94364.53;5053860;28;20052;-46
2021/10/11 08:30:27;;;;;;;3.15;1.60;;;;;;;31.47;21.05;94379.22;5053662;28;20455;-47
2021/10/11 08:32:54;;;;;;;2.90;1.77;;;;;;;31.79;20.83;94368.50;5053127;28;20364;-47
2021/10/11 08:35:21;;;;;;;3.53;1.67;;;;;;;31.68;21.44;94378.75;5053567;28;20048;-47
2021/10/11 08:37:50;;;;;;;2.58;1.50;;;;;;;31.38;21.41;94371.72;5053821;28;20045;-48
2021/10/11 08:40:19;;;;;;;1.85;1.35;;;;;;;31.56;21.30;94379.44;5053662;28;20040;-47
2021/10/11 08:42:48;;;;;;;2.20;1.70;;;;;;;31.40;21.36;94374.75;5054614;28;20052;-46
2021/10/11 08:45:16;;;;;;;3.75;1.77;;;;;;;31.26;21.85;94386.63;5057034;28;20065;-47
2021/10/11 08:47:43;;;;;;;2.50;1.55;;;;;;;31.16;21.94;94370.63;5057787;28;20045;-47
2021/10/11 08:50:15;;;;;;;2.40;1.50;;;;;;;31.58;21.62;94366.25;5057807;28;20452;-47
2021/10/11 08:52:42;;;;;;;2.15;1.50;;;;;;;31.72;21.47;94367.88;5057353;28;20052;-51
2021/10/11 08:55:10;;;;;;;2.55;1.80;;;;;;;31.40;21.67;94361.25;5057483;28;20336;-47
2021/10/11 08:57:37;;;;;;;2.55;1.60;;;;;;;31.39;21.88;94367.06;5057679;28;20056;-49
2021/10/11 09:00:20;;;;;;;2.60;1.48;;;;;;;31.78;21.36;94374.34;5057282;28;20387;-46
2021/10/11 09:02:58;;;;;;;2.03;1.83;;;;;;;31.37;21.46;94369.44;5056777;28;20060;-47
2021/10/11 09:05:33;;;;;;;2.15;1.70;;;;;;;31.83;21.29;94379.97;5057210;28;20056;-47
2021/10/11 09:08:11;;;;;;;2.65;1.77;;;;;;;31.70;21.05;94371.00;5057119;28;20056;-48
2021/10/11 09:10:55;;;;;;;2.30;2.08;;;;;;;31.84;21.00;94370.69;5057420;28;20037;-46
2021/10/11 09:13:28;;;;;;;3.03;2.10;;;;;;;31.82;21.38;94378.47;5057040;28;20455;-47
2021/10/11 09:16:33;;;;;;;2.53;1.85;;;;;;;31.83;21.35;94369.19;5056957;28;20052;-47
2021/10/11 09:19:23;;;;;;;2.33;1.88;;;;;;;31.64;21.61;94372.69;5057400;28;20474;-46
2021/10/11 09:21:50;;;;;;;2.60;1.70;;;;;;;31.78;21.22;94371.63;5056867;28;20037;-47
2021/10/11 09:24:21;;;;;;;2.00;1.50;;;;;;;32.04;20.68;94361.75;5057141;28;20044;-46
2021/10/11 09:26:54;;;;;;;2.60;1.77;;;;;;;32.17;20.65;94370.66;5056861;28;20048;-46
2021/10/11 09:29:33;;;;;;;1.90;1.70;;;;;;;31.92;21.22;94360.47;5057190;28;20132;-50
2021/10/11 09:32:06;;;;;;;1.83;1.63;;;;;;;32.43;20.36;94361.53;5076110;28;20044;-46
2021/10/11 09:34:35;;;;;;;3.08;1.65;;;;;;;32.10;21.18;94349.97;5064356;28;20465;-46
2021/10/11 09:37:04;;;;;;;3.70;2.00;;;;;;;32.01;21.13;94347.13;5074211;28;20505;-46
2021/10/11 09:39:34;;;;;;;2.10;1.80;;;;;;;31.99;21.44;94354.13;5076890;28;20052;-49
2021/10/11 09:42:03;;;;;;;2.60;1.85;;;;;;;32.51;20.70;94348.56;5076091;28;20392;-47
2021/10/11 09:44:30;;;;;;;2.35;1.92;;;;;;;32.42;20.50;94337.59;5076871;28;20061;-47
2021/10/11 09:47:00;;;;;;;1.90;1.70;;;;;;;32.40;21.00;94340.75;5072470;28;20045;-48
2021/10/11 09:49:27;;;;;;;1.70;1.60;;;;;;;32.56;20.60;94345.34;5056771;28;20051;-49
2021/10/11 09:51:55;;;;;;;2.10;1.88;;;;;;;32.28;20.86;94338.75;5056976;28;20758;-46
2021/10/11 09:54:23;;;;;;;1.95;1.75;;;;;;;32.75;20.69;94343.66;5076678;28;20050;-47
2021/10/11 09:56:50;;;;;;;1.88;1.58;;;;;;;32.84;20.65;94351.97;5076290;28;20051;-47
2021/10/11 09:59:18;;;;;;;2.03;1.83;;;;;;;32.11;20.82;94345.34;5076622;28;20057;-49
2021/10/11 10:01:46;;;;;;;2.22;1.73;;;;;;;32.50;20.68;94345.09;5065182;28;20052;-46
2021/10/11 10:04:36;;;;;;;2.00;1.80;;;;;;;32.54;20.76;94344.28;5075143;28;20044;-47
2021/10/11 10:07:06;;;;;;;3.88;2.00;;;;;;;32.00;21.14;94334.00;5058094;28;20448;-45
2021/10/11 10:09:45;;;;;;;2.78;2.28;;;;;;;32.20;20.42;94340.84;5076550;28;20052;-47
2021/10/11 10:12:12;;;;;;;3.42;2.42;;;;;;;32.45;20.51;94326.69;5055094;28;20048;-46
2021/10/11 10:14:39;;;;;;;2.92;2.22;;;;;;;32.41;20.65;94330.69;5054159;28;20049;-47
2021/10/11 10:17:06;;;;;;;4.85;2.60;;;;;;;32.87;20.20;94329.44;5058477;28;20040;-49
2021/10/11 10:19:41;;;;;;;4.07;2.53;;;;;;;32.52;19.94;94331.13;5057402;28;20055;-46
2021/10/11 10:22:16;;;;;;;2.90;2.42;;;;;;;32.25;20.34;94326.03;5056155;28;20476;-50
2021/10/11 10:24:44;;;;;;;3.13;2.80;;;;;;;32.21;20.92;94333.47;5070921;28;20358;-46
2021/10/11 10:27:17;;;;;;;3.10;2.63;;;;;;;32.67;19.75;94326.13;5075952;28;20045;-47
2021/10/11 10:29:48;;;;;;;2.70;2.50;;;;;;;32.85;19.70;94331.81;5075929;28;20048;-47
2021/10/11 10:32:17;;;;;;;2.97;2.40;;;;;;;32.29;20.55;94324.03;5075471;28;20051;-49
2021/10/11 10:34:59;;;;;;;3.38;2.42;;;;;;;32.26;20.37;94319.47;5075613;28;20048;-47
2021/10/11 10:37:37;;;;;;;3.47;2.50;;;;;;;32.59;20.07;94325.56;5061610;28;20044;-46
2021/10/11 10:40:10;;;;;;;3.25;2.33;;;;;;;32.82;19.64;94324.56;5055573;28;20059;-49
2021/10/11 10:42:38;;;;;;;2.63;2.28;;;;;;;32.84;20.05;94316.78;5055628;28;20055;-49
2021/10/11 10:45:20;;;;;;;3.53;2.67;;;;;;;32.76;20.04;94323.53;5072713;28;20462;-47
2021/10/11 10:47:49;;;;;;;5.47;2.65;;;;;;;32.96;19.81;94321.44;5074816;28;20060;-47
2021/10/11 10:50:22;;;;;;;3.10;2.40;;;;;;;32.09;20.85;94316.03;5074872;28;20058;-48
2021/10/11 10:52:54;;;;;;;2.80;2.45;;;;;;;32.70;20.12;94314.44;5075363;28;20079;-46
2021/10/11 10:55:22;;;;;;;3.70;2.60;;;;;;;32.75;20.01;94313.91;5073833;28;20056;-48
2021/10/11 10:57:53;;;;;;;2.95;2.65;;;;;;;32.76;19.84;94302.63;5055554;28;20040;-49
2021/10/11 11:00:20;;;;;;;3.97;2.95;;;;;;;32.44;20.39;94292.72;5054964;28;20083;-47
2021/10/11 11:02:51;;;;;;;3.00;2.70;;;;;;;33.18;19.27;94299.16;5054245;28;20049;-47
2021/10/11 11:05:21;;;;;;;2.78;2.33;;;;;;;32.77;19.56;94296.03;5053248;28;20045;-46
2021/10/11 11:07:50;;;;;;;4.00;2.80;;;;;;;32.99;19.89;94298.91;5055606;28;20041;-46
2021/10/11 11:10:19;;;;;;;3.47;2.63;;;;;;;32.66;20.13;94292.13;5055340;28;20831;-48
2021/10/11 11:12:50;;;;;;;3.15;2.70;;;;;;;32.58;20.03;94290.81;5054970;28;20440;-47
2021/10/11 11:15:29;;;;;;;3.03;2.60;;;;;;;32.58;19.84;94290.81;5054737;28;20060;-47
2021/10/11 11:17:58;;;;;;;4.10;2.70;;;;;;;32.84;19.97;94292.41;5055064;28;20045;-45
2021/10/11 11:20:28;;;;;;;4.55;2.75;;;;;;;32.80;19.58;94287.09;5054861;28;20063;-48
2021/10/11 11:23:00;;;;;;;2.75;2.30;;;;;;;32.16;20.39;94282.63;5054990;28;20359;-47
2021/10/11 11:25:32;;;;;;;2.60;2.40;;;;;;;33.19;19.05;94279.00;5054633;28;20464;-46
2021/10/11 11:28:01;;;;;;;3.85;2.67;;;;;;;32.50;19.74;94284.81;5054737;28;20056;-47
2021/10/11 11:30:29;;;;;;;2.83;2.53;;;;;;;33.08;19.27;94287.47;5054584;28;20045;-48
2021/10/11 11:33:04;;;;;;;3.25;2.70;;;;;;;32.81;19.42;94287.88;5054497;28;20045;-50
2021/10/11 11:35:32;;;;;;;3.05;2.75;;;;;;;32.37;20.33;94287.50;5055485;28;20439;-48
2021/10/11 11:38:04;;;;;;;3.30;2.85;;;;;;;33.06;19.52;94282.47;5074583;28;20055;-47
2021/10/11 11:40:35;;;;;;;3.13;2.40;;;;;;;32.64;20.17;94280.97;5074444;28;20045;-46